Beatty, Oregon
Current Conditions -  °F | °C
As of 5:53 AM on Monday 20 Oct 2014 (Local Time) from KLMT Reporting Station
Clear Clear  
Wind Chill: 51°   Ceiling: Unl
Heat Index: 51°   Visibility: 10mi
Dew Point: 42°   Wind: 14mph
Humidity: 71%   Direction: 160°SSE
Pressure: 29.85"   Gusts: NA
Location:  42.44°N, 121.27°W
Report Text: KLMT 201253Z AUTO 16012KT 10SM CLR 11/06 A2985 RMK AO2 SLP080 T01060056
Loading
Personal Weather Stations






























Interactive Weather Map
Tropical Storm Tracking
New forecast layout! Learn more

10-Day Weather Forecast

Advertisements
Track Severe Weather on mobile